Time;durP1;ratioP1;P1;durP2;ratioP2;P2;SDS_P1;SDS_P2;PMS_P1;PMS_P2;Temp;Humidity;BMP_temperature;BMP_pressure;BME280_temperature;BME280_humidity;BME280_pressure;Samples;Min_cycle;Max_cycle;Signal;HPM_P1;HPM_P2
2022/08/31 00:04:25;;;;;;;3.50;1.20;;;19.90;99.90;;;;;;5113494;28;20525;-79
2022/08/31 00:06:53;;;;;;;3.03;1.30;;;20.00;99.90;;;;;;5123555;28;20540;-79
2022/08/31 00:09:21;;;;;;;3.00;1.40;;;20.00;99.90;;;;;;5113101;28;21061;-78
2022/08/31 00:11:48;;;;;;;2.00;1.10;;;20.00;99.90;;;;;;5128756;28;20473;-79
2022/08/31 00:14:14;;;;;;;7.00;1.57;;;20.00;99.90;;;;;;5102811;28;20509;-81
2022/08/31 00:16:45;;;;;;;2.53;1.67;;;20.00;99.90;;;;;;5101499;28;20533;-79
2022/08/31 00:19:12;;;;;;;3.00;1.50;;;19.90;99.90;;;;;;5104914;28;20475;-80
2022/08/31 00:21:39;;;;;;;4.60;1.47;;;19.90;99.90;;;;;;5102676;28;20613;-80
2022/08/31 00:24:08;;;;;;;2.30;1.30;;;19.90;99.90;;;;;;5106616;28;20885;-80
2022/08/31 00:26:35;;;;;;;3.00;1.20;;;19.80;99.90;;;;;;5114610;28;20492;-81
2022/08/31 00:29:02;;;;;;;2.90;1.53;;;19.80;99.90;;;;;;5106721;28;20477;-79
2022/08/31 00:31:28;;;;;;;3.00;1.40;;;19.80;99.90;;;;;;5107757;28;20489;-81
2022/08/31 00:33:55;;;;;;;2.70;1.37;;;19.80;99.90;;;;;;5107368;28;20478;-79
2022/08/31 00:36:24;;;;;;;2.13;1.10;;;19.80;99.90;;;;;;5105200;28;20460;-81
2022/08/31 00:38:51;;;;;;;2.77;1.20;;;19.80;99.90;;;;;;5111942;28;20602;-80
2022/08/31 00:41:22;;;;;;;3.43;1.40;;;19.80;99.90;;;;;;5106106;28;20488;-80
2022/08/31 00:43:52;;;;;;;2.50;1.20;;;19.80;99.90;;;;;;5114053;28;20481;-80
2022/08/31 00:46:22;;;;;;;3.50;1.27;;;19.80;99.90;;;;;;5117220;28;20448;-81
2022/08/31 00:48:55;;;;;;;3.27;1.40;;;19.80;99.90;;;;;;5112574;28;20482;-80
2022/08/31 00:51:22;;;;;;;3.73;1.20;;;19.70;99.90;;;;;;5104601;28;20456;-79
2022/08/31 00:53:49;;;;;;;2.40;1.10;;;19.70;99.90;;;;;;5108714;28;20464;-80
2022/08/31 00:56:16;;;;;;;3.20;1.40;;;19.60;99.90;;;;;;5114990;28;20564;-79
2022/08/31 00:58:46;;;;;;;2.40;1.13;;;19.60;99.90;;;;;;5096878;28;20462;-78
2022/08/31 01:01:13;;;;;;;2.60;1.20;;;19.60;99.90;;;;;;5103951;28;20573;-81
2022/08/31 01:03:40;;;;;;;3.17;1.20;;;19.60;99.90;;;;;;5094094;28;20818;-80
2022/08/31 01:06:08;;;;;;;2.97;1.27;;;19.60;99.90;;;;;;5097925;28;20534;-79
2022/08/31 01:08:38;;;;;;;2.60;1.10;;;19.50;99.90;;;;;;5097010;28;20498;-79
2022/08/31 01:11:05;;;;;;;3.03;1.60;;;19.50;99.90;;;;;;5098290;28;20481;-78
2022/08/31 01:13:32;;;;;;;2.50;1.20;;;19.50;99.90;;;;;;5108680;28;20450;-78
2022/08/31 01:16:05;;;;;;;2.20;1.10;;;19.50;99.90;;;;;;5101968;28;20529;-80
2022/08/31 01:18:33;;;;;;;2.27;1.00;;;19.60;99.90;;;;;;5112679;28;20564;-78
2022/08/31 01:21:09;;;;;;;2.70;1.30;;;19.50;99.90;;;;;;5104725;28;20512;-79
2022/08/31 01:23:42;;;;;;;2.80;1.30;;;19.50;99.90;;;;;;5100377;28;20448;-81
2022/08/31 01:26:10;;;;;;;3.00;1.37;;;19.50;99.90;;;;;;5116538;28;20445;-79
2022/08/31 01:28:37;;;;;;;5.27;1.33;;;19.50;99.90;;;;;;5117510;28;20470;-79
2022/08/31 01:31:08;;;;;;;2.27;1.13;;;19.50;99.90;;;;;;5102851;28;20442;-80
2022/08/31 01:33:38;;;;;;;3.00;1.40;;;19.40;99.90;;;;;;5097317;28;20515;-82
2022/08/31 01:36:06;;;;;;;2.87;1.10;;;19.40;99.90;;;;;;5116393;28;20766;-81
2022/08/31 01:38:34;;;;;;;4.03;1.47;;;19.40;99.90;;;;;;5119506;28;20575;-80
2022/08/31 01:41:04;;;;;;;2.40;1.17;;;19.50;99.90;;;;;;5107864;28;20484;-80
2022/08/31 01:43:33;;;;;;;4.90;1.20;;;19.40;99.90;;;;;;5100066;28;20456;-81
2022/08/31 01:46:00;;;;;;;2.63;1.10;;;19.40;99.90;;;;;;5099400;28;20449;-80
2022/08/31 01:48:27;;;;;;;3.53;1.30;;;19.40;99.90;;;;;;5097746;28;20557;-79
2022/08/31 01:50:54;;;;;;;2.60;1.10;;;19.40;99.90;;;;;;5110385;28;20838;-80
2022/08/31 01:53:21;;;;;;;3.20;1.40;;;19.40;99.90;;;;;;5095442;28;20454;-79
2022/08/31 01:55:47;;;;;;;4.03;1.50;;;19.40;99.90;;;;;;5101323;28;20485;-79
2022/08/31 01:58:16;;;;;;;2.30;1.00;;;19.50;99.90;;;;;;5096501;28;20501;-81
2022/08/31 02:00:43;;;;;;;2.90;1.23;;;19.40;99.90;;;;;;5095339;28;20528;-78
2022/08/31 02:03:10;;;;;;;3.63;1.23;;;19.40;99.90;;;;;;5095151;28;20453;-80
2022/08/31 02:05:38;;;;;;;2.80;1.17;;;19.40;99.90;;;;;;5094041;28;20497;-79
2022/08/31 02:08:07;;;;;;;3.23;1.13;;;19.40;99.90;;;;;;5095746;28;20469;-78
2022/08/31 02:10:35;;;;;;;2.73;1.20;;;19.40;99.90;;;;;;5096124;28;20487;-79
2022/08/31 02:13:01;;;;;;;2.43;1.07;;;19.40;99.90;;;;;;5095923;28;20825;-78
2022/08/31 02:15:30;;;;;;;3.80;1.00;;;19.40;99.90;;;;;;5096454;28;20450;-80
2022/08/31 02:17:57;;;;;;;4.40;1.20;;;19.40;99.90;;;;;;5094698;28;20477;-80
2022/08/31 02:20:24;;;;;;;4.13;1.10;;;19.40;99.90;;;;;;5095592;28;20545;-79
2022/08/31 02:22:51;;;;;;;2.17;1.00;;;19.40;99.90;;;;;;5093538;28;20545;-78
2022/08/31 02:25:18;;;;;;;2.40;1.10;;;19.30;99.90;;;;;;5110565;28;20539;-79
2022/08/31 02:27:45;;;;;;;2.97;1.50;;;19.30;99.90;;;;;;5115916;28;20465;-81
2022/08/31 02:30:15;;;;;;;2.20;1.13;;;19.30;99.90;;;;;;5105363;28;20458;-79
2022/08/31 02:32:44;;;;;;;6.33;1.30;;;19.30;99.90;;;;;;5115321;28;20543;-81
2022/08/31 02:35:11;;;;;;;2.37;1.17;;;19.30;99.90;;;;;;5114091;28;20535;-79
2022/08/31 02:37:38;;;;;;;3.60;1.60;;;19.30;99.90;;;;;;5119080;28;20511;-80
2022/08/31 02:40:08;;;;;;;2.23;1.10;;;19.20;99.90;;;;;;5105607;28;20529;-78
2022/08/31 02:42:35;;;;;;;2.50;1.10;;;19.20;99.90;;;;;;5114024;28;20829;-79
2022/08/31 02:45:02;;;;;;;2.70;1.37;;;19.20;99.90;;;;;;5107860;28;21035;-78
2022/08/31 02:47:30;;;;;;;2.30;1.23;;;19.20;99.90;;;;;;5098417;28;20549;-78
2022/08/31 02:49:58;;;;;;;2.23;1.20;;;19.20;99.90;;;;;;5103914;28;20496;-78
2022/08/31 02:52:25;;;;;;;1.93;1.00;;;19.20;99.90;;;;;;5102283;28;20470;-78
2022/08/31 02:54:52;;;;;;;3.10;1.13;;;19.20;99.90;;;;;;5114770;28;20454;-79
2022/08/31 02:57:19;;;;;;;2.37;1.10;;;19.10;99.90;;;;;;5119165;28;20444;-78
2022/08/31 02:59:46;;;;;;;3.23;1.30;;;19.20;99.90;;;;;;5106017;28;20449;-78
2022/08/31 03:02:13;;;;;;;4.43;1.40;;;19.20;99.90;;;;;;5102096;28;20477;-78
2022/08/31 03:04:40;;;;;;;2.60;1.20;;;19.10;99.90;;;;;;5112451;28;20987;-78
2022/08/31 03:07:08;;;;;;;2.10;1.10;;;19.10;99.90;;;;;;5116472;28;20462;-81
2022/08/31 03:09:35;;;;;;;5.80;1.57;;;19.10;99.90;;;;;;5103881;28;20825;-80
2022/08/31 03:12:03;;;;;;;2.73;1.37;;;19.10;99.90;;;;;;5097376;28;20513;-79
2022/08/31 03:14:30;;;;;;;2.40;1.20;;;19.10;99.90;;;;;;5097266;28;20496;-78
2022/08/31 03:16:57;;;;;;;2.87;1.70;;;19.10;99.90;;;;;;5101738;28;20535;-79
2022/08/31 03:19:24;;;;;;;2.53;1.13;;;19.10;99.90;;;;;;5118076;28;20498;-80
2022/08/31 03:21:51;;;;;;;2.30;1.20;;;19.10;99.90;;;;;;5107037;28;20505;-79
2022/08/31 03:24:20;;;;;;;3.50;1.30;;;19.10;99.90;;;;;;5117164;28;20484;-80
2022/08/31 03:26:48;;;;;;;3.03;1.50;;;19.00;99.90;;;;;;5096531;28;20459;-78
2022/08/31 03:29:15;;;;;;;2.60;1.10;;;19.10;99.90;;;;;;5097993;28;20858;-78
2022/08/31 03:31:42;;;;;;;3.00;1.10;;;19.10;99.90;;;;;;5097282;28;20541;-78
2022/08/31 03:34:09;;;;;;;4.33;1.53;;;19.10;99.90;;;;;;5096600;28;20540;-78
2022/08/31 03:36:36;;;;;;;2.40;1.10;;;19.00;99.90;;;;;;5098344;28;20496;-78
2022/08/31 03:39:03;;;;;;;3.30;1.27;;;19.10;99.90;;;;;;5096877;28;20477;-78
2022/08/31 03:41:32;;;;;;;3.00;1.33;;;19.00;99.90;;;;;;5097342;28;20576;-79
2022/08/31 03:44:00;;;;;;;3.00;1.43;;;19.00;99.90;;;;;;5095865;28;20449;-80
2022/08/31 03:46:28;;;;;;;2.80;1.40;;;19.00;99.90;;;;;;5097535;28;20891;-78
2022/08/31 03:48:55;;;;;;;2.30;1.10;;;19.00;99.90;;;;;;5096522;28;21020;-78
2022/08/31 03:51:21;;;;;;;5.33;1.83;;;19.00;99.90;;;;;;5098587;28;20503;-78
2022/08/31 03:53:48;;;;;;;2.57;1.50;;;18.80;99.90;;;;;;5097184;28;20545;-78
2022/08/31 03:56:15;;;;;;;3.23;1.40;;;18.80;99.90;;;;;;5097117;28;20454;-77
2022/08/31 03:58:43;;;;;;;2.70;1.40;;;18.80;99.90;;;;;;5096475;28;20512;-79
2022/08/31 04:01:12;;;;;;;2.40;1.40;;;18.70;99.90;;;;;;5095379;28;21086;-77
2022/08/31 04:03:39;;;;;;;2.80;1.33;;;18.70;99.90;;;;;;5095805;28;20553;-81
2022/08/31 04:06:09;;;;;;;3.63;1.63;;;18.70;99.90;;;;;;5095610;28;20536;-80
2022/08/31 04:08:36;;;;;;;4.13;1.50;;;18.70;99.90;;;;;;5096782;28;20925;-80
2022/08/31 04:11:08;;;;;;;2.33;1.17;;;18.70;99.90;;;;;;5096349;28;20548;-80
2022/08/31 04:13:36;;;;;;;3.43;1.43;;;18.70;99.90;;;;;;5096262;28;20445;-80
2022/08/31 04:16:06;;;;;;;2.77;1.10;;;18.70;99.90;;;;;;5095617;28;20474;-77
2022/08/31 04:18:33;;;;;;;2.50;1.53;;;18.60;99.90;;;;;;5095199;28;20500;-79
2022/08/31 04:21:00;;;;;;;3.33;1.43;;;18.60;99.90;;;;;;5095992;28;20516;-79
2022/08/31 04:23:28;;;;;;;2.53;1.27;;;18.60;99.90;;;;;;5093266;28;20461;-79
2022/08/31 04:25:56;;;;;;;2.80;1.50;;;18.60;99.90;;;;;;5093358;28;20453;-78
2022/08/31 04:28:23;;;;;;;2.43;1.30;;;18.60;99.90;;;;;;5093516;28;20568;-79
2022/08/31 04:30:50;;;;;;;5.13;1.80;;;18.50;99.90;;;;;;5093369;28;20534;-79
2022/08/31 04:33:18;;;;;;;3.50;1.40;;;18.50;99.90;;;;;;5093330;28;20540;-79
2022/08/31 04:35:45;;;;;;;4.30;1.87;;;18.40;99.90;;;;;;5093798;28;20548;-78
2022/08/31 04:38:13;;;;;;;2.80;1.30;;;18.40;99.90;;;;;;5109091;22;20496;-78
2022/08/31 04:40:41;;;;;;;2.40;1.30;;;18.40;99.90;;;;;;5067540;28;20979;-77
2022/08/31 04:43:08;;;;;;;2.43;1.37;;;18.30;99.90;;;;;;5065844;28;20576;-79
2022/08/31 04:45:40;;;;;;;2.97;1.37;;;18.30;99.90;;;;;;5071614;28;20461;-77
2022/08/31 04:48:07;;;;;;;2.43;1.40;;;18.20;99.90;;;;;;5072163;28;20872;-78
2022/08/31 04:50:35;;;;;;;4.07;1.47;;;18.20;99.90;;;;;;5071299;28;20481;-77
2022/08/31 04:53:02;;;;;;;2.20;1.10;;;18.10;99.90;;;;;;5069060;28;20549;-76
2022/08/31 04:55:29;;;;;;;3.67;1.57;;;18.10;99.90;;;;;;5072106;28;20546;-77
2022/08/31 04:57:56;;;;;;;3.17;1.60;;;18.10;99.90;;;;;;5070624;28;20472;-78
2022/08/31 05:00:23;;;;;;;4.43;1.60;;;18.10;99.90;;;;;;5071989;28;20987;-76
2022/08/31 05:02:52;;;;;;;2.90;1.70;;;18.10;99.90;;;;;;5071177;28;20486;-77
2022/08/31 05:05:19;;;;;;;3.90;1.40;;;18.00;99.90;;;;;;5070445;28;20481;-77
2022/08/31 05:07:47;;;;;;;3.43;1.43;;;18.00;99.90;;;;;;5072453;28;20549;-79
2022/08/31 05:10:14;;;;;;;3.57;1.70;;;18.00;99.90;;;;;;5071399;28;20480;-78
2022/08/31 05:12:43;;;;;;;3.30;1.50;;;18.00;99.90;;;;;;5072320;28;20462;-78
2022/08/31 05:15:10;;;;;;;7.07;1.73;;;18.00;99.90;;;;;;5065730;28;20544;-79
2022/08/31 05:17:37;;;;;;;3.30;1.60;;;18.00;99.90;;;;;;5070711;28;20913;-77
2022/08/31 05:20:05;;;;;;;3.73;1.30;;;18.00;99.90;;;;;;5070093;28;20742;-78
2022/08/31 05:22:32;;;;;;;7.07;1.70;;;18.00;99.90;;;;;;5072726;28;20569;-79
2022/08/31 05:25:00;;;;;;;2.67;1.43;;;18.00;99.90;;;;;;5073492;28;20456;-80
2022/08/31 05:27:27;;;;;;;3.10;1.80;;;17.90;99.90;;;;;;5074595;28;20803;-80
2022/08/31 05:29:54;;;;;;;3.90;1.50;;;17.90;99.90;;;;;;5074838;28;20504;-80
2022/08/31 05:32:21;;;;;;;4.20;1.50;;;17.80;99.90;;;;;;5080785;28;20473;-79
2022/08/31 05:34:48;;;;;;;4.63;1.70;;;18.00;99.90;;;;;;5079371;28;20485;-80
2022/08/31 05:37:15;;;;;;;3.60;1.40;;;17.90;99.90;;;;;;5075635;28;20534;-79
2022/08/31 05:39:42;;;;;;;3.17;1.60;;;17.90;99.90;;;;;;5075592;28;20568;-80
2022/08/31 05:42:14;;;;;;;3.13;1.90;;;17.90;99.90;;;;;;5076185;28;20544;-79
2022/08/31 05:44:41;;;;;;;2.67;1.40;;;18.00;99.90;;;;;;5073324;28;20501;-80
2022/08/31 05:47:08;;;;;;;3.50;1.33;;;17.90;99.90;;;;;;5075979;28;20535;-80
2022/08/31 05:49:36;;;;;;;3.50;1.87;;;17.90;99.90;;;;;;5075860;28;20473;-80
2022/08/31 05:52:04;;;;;;;3.27;1.57;;;18.00;99.90;;;;;;5075533;28;20916;-79
2022/08/31 05:54:33;;;;;;;3.50;1.40;;;18.00;99.90;;;;;;5074008;28;20791;-79
2022/08/31 05:57:00;;;;;;;4.30;1.53;;;18.00;99.90;;;;;;5074668;28;20449;-80
2022/08/31 05:59:28;;;;;;;3.23;1.63;;;18.00;99.90;;;;;;5075264;28;20538;-79
2022/08/31 06:01:55;;;;;;;2.73;1.40;;;18.00;99.90;;;;;;5075275;28;20591;-79
2022/08/31 06:04:22;;;;;;;6.20;1.73;;;18.10;99.90;;;;;;5078494;28;20457;-79
2022/08/31 06:06:50;;;;;;;4.33;1.60;;;18.10;99.90;;;;;;5079644;28;20453;-78
2022/08/31 06:09:17;;;;;;;4.13;1.77;;;18.20;99.90;;;;;;5076406;28;20489;-78
2022/08/31 06:11:44;;;;;;;5.13;1.77;;;18.20;99.90;;;;;;5078428;28;20540;-80
2022/08/31 06:14:11;;;;;;;5.10;1.60;;;18.20;99.90;;;;;;5077742;28;20971;-79
2022/08/31 06:16:42;;;;;;;5.20;1.30;;;18.20;99.90;;;;;;5078581;28;20452;-78
2022/08/31 06:19:09;;;;;;;6.10;2.13;;;18.20;99.90;;;;;;5076578;28;20504;-79
2022/08/31 06:21:39;;;;;;;5.10;1.60;;;18.30;99.90;;;;;;5076696;28;20537;-78
2022/08/31 06:24:08;;;;;;;3.10;1.47;;;18.30;99.90;;;;;;5076537;28;21036;-79
2022/08/31 06:26:35;;;;;;;3.30;1.80;;;18.20;99.90;;;;;;5077731;28;20468;-79
2022/08/31 06:29:04;;;;;;;3.57;1.57;;;18.20;99.90;;;;;;5077039;28;20555;-79
2022/08/31 06:31:34;;;;;;;4.10;1.60;;;18.30;99.90;;;;;;5077385;28;20484;-79
2022/08/31 06:34:03;;;;;;;6.83;2.43;;;18.30;99.90;;;;;;5074628;28;20456;-80
2022/08/31 06:36:32;;;;;;;13.00;1.90;;;18.40;99.90;;;;;;5072881;28;21947;-80
2022/08/31 06:38:59;;;;;;;3.30;1.57;;;18.40;99.90;;;;;;5071082;28;20906;-81
2022/08/31 06:41:29;;;;;;;4.13;2.07;;;18.40;99.90;;;;;;5075148;28;20448;-80
2022/08/31 06:44:04;;;;;;;4.87;1.97;;;18.50;99.90;;;;;;5072682;28;20462;-79
2022/08/31 06:46:37;;;;;;;4.27;1.97;;;18.60;99.90;;;;;;5068582;28;21144;-79
2022/08/31 06:49:06;;;;;;;4.70;2.23;;;18.60;99.90;;;;;;5070760;28;20478;-78
2022/08/31 06:51:38;;;;;;;5.60;2.03;;;18.60;99.90;;;;;;5067523;28;20456;-79
2022/08/31 06:54:07;;;;;;;4.80;1.87;;;18.60;99.90;;;;;;5068362;28;20458;-77
2022/08/31 06:56:35;;;;;;;3.77;2.10;;;18.70;99.90;;;;;;5071598;28;20478;-81
2022/08/31 06:59:03;;;;;;;2.93;1.57;;;18.60;99.90;;;;;;5073339;28;20484;-78
2022/08/31 07:01:36;;;;;;;5.17;2.50;;;18.60;99.90;;;;;;5069393;28;20527;-79
2022/08/31 07:04:10;;;;;;;7.00;2.07;;;18.60;99.90;;;;;;5064227;28;20448;-78
2022/08/31 07:06:40;;;;;;;4.03;1.83;;;18.50;99.90;;;;;;5065917;28;20451;-79
2022/08/31 07:09:10;;;;;;;3.90;1.97;;;18.60;99.90;;;;;;5065602;28;20471;-80
2022/08/31 07:11:42;;;;;;;4.60;1.77;;;18.70;99.90;;;;;;5065920;28;20508;-80
2022/08/31 07:14:12;;;;;;;5.63;1.83;;;18.70;99.90;;;;;;5066694;28;20483;-80
2022/08/31 07:16:39;;;;;;;4.83;1.90;;;18.80;99.90;;;;;;5071988;28;20458;-80
2022/08/31 07:19:08;;;;;;;3.70;1.80;;;18.90;99.90;;;;;;5075136;28;20496;-81
2022/08/31 07:21:39;;;;;;;10.60;1.97;;;18.90;99.90;;;;;;5065491;28;20468;-80
2022/08/31 07:24:07;;;;;;;5.90;2.80;;;18.90;99.90;;;;;;5058045;28;20811;-78
2022/08/31 07:26:36;;;;;;;3.73;2.20;;;18.90;99.90;;;;;;5062621;28;20530;-79
2022/08/31 07:29:08;;;;;;;3.83;2.23;;;18.80;99.90;;;;;;5073748;28;20558;-80
2022/08/31 07:31:45;;;;;;;3.10;1.90;;;18.90;99.90;;;;;;5077600;28;20449;-80
2022/08/31 07:34:17;;;;;;;5.10;1.60;;;18.90;99.90;;;;;;5078543;28;20444;-80
2022/08/31 07:42:19;;;;;;;5.10;1.50;;;19.10;99.90;;;;;;5079670;28;20567;-78
2022/08/31 07:44:48;;;;;;;4.07;2.23;;;19.20;99.90;;;;;;5074429;28;20533;-78
2022/08/31 07:47:18;;;;;;;3.77;2.00;;;19.30;99.90;;;;;;5065545;28;20461;-78
2022/08/31 07:49:50;;;;;;;4.00;1.83;;;19.30;99.90;;;;;;5059196;28;20479;-77
2022/08/31 07:52:19;;;;;;;3.83;2.00;;;19.40;99.90;;;;;;5066675;28;20451;-79
2022/08/31 07:54:46;;;;;;;5.53;2.23;;;19.30;99.90;;;;;;5055875;28;20455;-78
2022/08/31 07:57:14;;;;;;;3.93;1.70;;;19.30;99.90;;;;;;5071730;28;20537;-78
2022/08/31 07:59:41;;;;;;;6.17;1.93;;;19.30;99.90;;;;;;5076819;28;20483;-79
2022/08/31 08:02:09;;;;;;;5.50;2.07;;;19.20;99.90;;;;;;5075957;28;20536;-79
2022/08/31 08:04:38;;;;;;;4.80;1.67;;;19.40;99.90;;;;;;5075450;28;20447;-80
2022/08/31 08:07:06;;;;;;;7.10;2.47;;;19.30;99.90;;;;;;5076471;28;20495;-80
2022/08/31 08:09:33;;;;;;;3.47;1.50;;;19.40;99.90;;;;;;5058762;28;20527;-80
2022/08/31 08:12:05;;;;;;;11.50;2.07;;;19.50;99.90;;;;;;5068431;28;20904;-78
2022/08/31 08:14:33;;;;;;;4.33;1.80;;;19.40;99.90;;;;;;5074696;28;20464;-80
2022/08/31 08:17:00;;;;;;;6.30;2.00;;;19.30;99.90;;;;;;5073079;28;20882;-79
2022/08/31 08:19:29;;;;;;;3.67;2.90;;;19.40;99.90;;;;;;5068086;28;20553;-78
2022/08/31 08:21:56;;;;;;;5.60;2.37;;;19.40;99.90;;;;;;5074711;28;20541;-80
2022/08/31 08:24:28;;;;;;;4.60;2.00;;;19.50;99.90;;;;;;5073761;28;20451;-77
2022/08/31 08:26:55;;;;;;;3.63;2.27;;;19.60;99.90;;;;;;5074479;28;20960;-78
2022/08/31 08:29:23;;;;;;;4.60;2.17;;;19.60;99.90;;;;;;5074566;28;21009;-78
2022/08/31 08:31:53;;;;;;;4.67;2.40;;;19.80;99.90;;;;;;5073987;28;20955;-78
2022/08/31 08:34:22;;;;;;;2.87;1.80;;;19.90;99.90;;;;;;5073672;28;20498;-81
2022/08/31 08:36:52;;;;;;;7.17;2.10;;;20.00;99.90;;;;;;5070629;28;20452;-77
2022/08/31 08:39:19;;;;;;;4.70;2.40;;;20.20;99.90;;;;;;5053706;28;21037;-77
2022/08/31 08:41:54;;;;;;;5.20;3.03;;;20.30;99.90;;;;;;5072588;28;20534;-79
2022/08/31 08:44:28;;;;;;;5.70;2.83;;;20.50;99.90;;;;;;5073393;28;20585;-80
2022/08/31 08:46:59;;;;;;;3.80;2.13;;;20.70;99.90;;;;;;5069829;28;20451;-79
2022/08/31 08:49:37;;;;;;;4.67;2.67;;;20.90;99.90;;;;;;5067699;28;20475;-79
2022/08/31 08:52:10;;;;;;;4.13;2.37;;;21.00;99.90;;;;;;5067279;28;20473;-79
2022/08/31 08:54:41;;;;;;;4.10;1.83;;;21.20;99.90;;;;;;5071704;28;20455;-78
2022/08/31 08:57:13;;;;;;;9.63;2.70;;;21.30;99.90;;;;;;5073678;28;20472;-77
2022/08/31 08:59:40;;;;;;;3.50;2.30;;;21.30;99.90;;;;;;5073323;28;20475;-77
2022/08/31 09:02:11;;;;;;;8.13;2.30;;;21.30;99.90;;;;;;5073965;28;20529;-78
2022/08/31 09:05:03;;;;;;;7.27;2.67;;;21.40;99.90;;;;;;5072763;28;20451;-78
2022/08/31 09:07:59;;;;;;;5.43;2.50;;;21.40;99.90;;;;;;5073704;28;20489;-78
2022/08/31 09:10:33;;;;;;;3.97;2.33;;;21.30;99.90;;;;;;5058729;28;20898;-78
2022/08/31 09:13:11;;;;;;;6.77;2.70;;;21.50;99.90;;;;;;5072772;28;20439;-78
2022/08/31 09:15:53;;;;;;;7.30;3.27;;;21.70;99.90;;;;;;5069751;28;20463;-78
2022/08/31 09:18:39;;;;;;;4.03;2.50;;;21.80;99.90;;;;;;5072642;28;20598;-79
2022/08/31 09:21:20;;;;;;;5.40;3.33;;;22.00;99.90;;;;;;5070192;28;20881;-79
2022/08/31 09:23:54;;;;;;;4.97;2.90;;;22.00;99.90;;;;;;5061107;28;20479;-78
2022/08/31 09:26:26;;;;;;;4.20;2.80;;;22.30;99.90;;;;;;5073114;28;20462;-79
2022/08/31 09:28:55;;;;;;;7.93;2.90;;;22.50;99.90;;;;;;5073708;28;20509;-80
2022/08/31 09:31:36;;;;;;;5.07;3.10;;;22.50;99.90;;;;;;5072639;28;20451;-79
2022/08/31 09:34:05;;;;;;;8.07;2.77;;;22.60;99.90;;;;;;5075603;28;20462;-79
2022/08/31 09:36:37;;;;;;;10.07;3.93;;;22.60;99.90;;;;;;5072533;28;20975;-79
2022/08/31 09:39:16;;;;;;;4.57;2.70;;;22.80;99.90;;;;;;5073023;28;20475;-79
2022/08/31 09:41:46;;;;;;;4.40;2.30;;;22.90;99.90;;;;;;5073331;28;20455;-79
2022/08/31 09:44:25;;;;;;;5.23;2.40;;;23.20;99.90;;;;;;5064454;28;20871;-78
2022/08/31 09:46:59;;;;;;;6.50;2.77;;;23.40;99.90;;;;;;5058512;28;20452;-79
2022/08/31 09:49:28;;;;;;;5.40;3.27;;;23.40;99.90;;;;;;5053987;28;20570;-78
2022/08/31 09:55:11;;;;;;;7.20;3.37;;;23.20;99.90;;;;;;5065726;28;20456;-80
2022/08/31 09:55:12;;;;;;;5.27;3.47;;;23.20;99.90;;;;;;5078631;28;20443;-78
2022/08/31 09:57:49;;;;;;;10.77;3.33;;;23.30;99.90;;;;;;5081263;28;20455;-80
2022/08/31 10:00:27;;;;;;;8.83;4.00;;;23.40;99.90;;;;;;5079963;28;20447;-80
2022/08/31 10:02:58;;;;;;;5.90;3.43;;;23.70;99.90;;;;;;5079555;28;20481;-79
2022/08/31 10:05:31;;;;;;;4.40;3.17;;;24.00;99.90;;;;;;5078155;28;20510;-79
2022/08/31 10:08:03;;;;;;;5.80;3.30;;;24.20;99.90;;;;;;5074585;28;20479;-81
2022/08/31 10:10:35;;;;;;;6.67;3.50;;;24.40;99.90;;;;;;5072902;28;20483;-80
2022/08/31 10:13:07;;;;;;;4.97;2.90;;;24.70;99.90;;;;;;5073594;28;20483;-79
2022/08/31 10:15:42;;;;;;;4.47;3.00;;;24.80;99.90;;;;;;5068358;28;20928;-82
2022/08/31 10:18:15;;;;;;;9.33;3.10;;;25.10;99.90;;;;;;5074341;28;20481;-80
2022/08/31 10:20:48;;;;;;;4.03;3.00;;;25.30;99.90;;;;;;5074594;28;20538;-80
2022/08/31 10:23:19;;;;;;;8.37;3.20;;;25.60;99.90;;;;;;5074232;28;20483;-79
2022/08/31 10:25:57;;;;;;;5.80;3.40;;;25.90;99.90;;;;;;5075531;28;20461;-79
2022/08/31 10:28:36;;;;;;;4.20;3.00;;;26.00;99.90;;;;;;5067715;28;20478;-79
2022/08/31 10:31:12;;;;;;;3.70;2.70;;;26.20;99.90;;;;;;5076442;28;20530;-80
2022/08/31 10:36:39;;;;;;;7.20;2.87;;;25.70;99.90;;;;;;5077413;28;20441;-79
2022/08/31 10:39:18;;;;;;;4.57;3.20;;;25.40;99.90;;;;;;5075920;28;21161;-79
2022/08/31 10:41:49;;;;;;;5.23;3.63;;;25.20;99.90;;;;;;5088396;28;20447;-81
2022/08/31 10:44:23;;;;;;;5.50;3.00;;;24.80;99.90;;;;;;5085038;28;20470;-80
2022/08/31 10:46:53;;;;;;;5.50;3.47;;;24.60;99.90;;;;;;5085835;28;20450;-80
2022/08/31 10:49:20;;;;;;;3.87;2.80;;;24.30;99.90;;;;;;5091258;28;20470;-81
2022/08/31 10:52:00;;;;;;;4.67;2.60;;;24.20;99.90;;;;;;5079554;28;20514;-82
2022/08/31 10:54:39;;;;;;;7.63;3.47;;;24.10;99.90;;;;;;5087576;28;20443;-82
2022/08/31 10:57:18;;;;;;;5.60;2.87;;;24.10;99.90;;;;;;5088750;28;20460;-82
2022/08/31 10:59:55;;;;;;;5.77;3.27;;;24.00;99.90;;;;;;5088882;28;20554;-81
2022/08/31 11:02:54;;;;;;;5.47;3.43;;;24.00;99.90;;;;;;5079823;28;20916;-81
2022/08/31 11:05:32;;;;;;;7.90;3.30;;;23.90;99.90;;;;;;5082351;28;20447;-83
2022/08/31 11:08:11;;;;;;;6.77;3.67;;;23.70;99.90;;;;;;5093070;28;20542;-84
2022/08/31 11:10:48;;;;;;;4.63;2.80;;;23.70;99.90;;;;;;5088905;28;20511;-79
2022/08/31 11:13:46;;;;;;;4.03;3.40;;;23.80;99.90;;;;;;5081721;28;20449;-80
2022/08/31 11:16:31;;;;;;;6.03;2.87;;;23.70;99.90;;;;;;5082755;28;20446;-79
2022/08/31 11:19:14;;;;;;;5.73;3.20;;;23.70;99.90;;;;;;5067920;28;20477;-81
2022/08/31 11:22:13;;;;;;;9.10;3.90;;;23.80;99.90;;;;;;5062040;28;20928;-79
2022/08/31 11:25:02;;;;;;;4.23;3.00;;;23.90;99.90;;;;;;5062424;28;20570;-79
2022/08/31 11:27:35;;;;;;;5.73;3.20;;;23.90;99.90;;;;;;5078868;28;20461;-80
2022/08/31 11:30:06;;;;;;;4.77;3.03;;;24.10;99.90;;;;;;5073675;28;20454;-80
2022/08/31 11:32:39;;;;;;;6.30;2.77;;;24.20;99.90;;;;;;5076819;28;20447;-79
2022/08/31 11:35:09;;;;;;;4.53;3.10;;;24.30;99.90;;;;;;5079393;28;20495;-80
2022/08/31 11:37:57;;;;;;;5.33;2.83;;;24.30;99.90;;;;;;5078703;28;20451;-79
2022/08/31 11:41:09;;;;;;;5.90;3.57;;;24.40;99.90;;;;;;5057480;28;20476;-78
2022/08/31 11:43:47;;;;;;;6.50;3.60;;;24.50;99.90;;;;;;5072602;28;20475;-79
2022/08/31 11:46:40;;;;;;;5.97;3.13;;;24.80;99.90;;;;;;5077352;28;20461;-81
2022/08/31 11:49:09;;;;;;;7.93;3.87;;;25.20;99.90;;;;;;5067218;28;20530;-80
2022/08/31 11:51:46;;;;;;;9.73;4.07;;;25.20;99.90;;;;;;5064244;28;20447;-81
2022/08/31 11:54:40;;;;;;;5.80;3.50;;;25.20;99.90;;;;;;5076078;28;20442;-80
2022/08/31 11:57:07;;;;;;;4.77;2.90;;;25.20;99.90;;;;;;5076109;28;20971;-80
2022/08/31 11:59:38;;;;;;;6.07;3.50;;;25.20;99.90;;;;;;5075566;28;20554;-81
2022/08/31 12:02:39;;;;;;;4.70;3.30;;;25.10;99.90;;;;;;5067628;28;20447;-80
2022/08/31 12:05:06;;;;;;;6.03;3.60;;;25.00;99.90;;;;;;5058353;28;20897;-81
2022/08/31 12:07:42;;;;;;;11.73;3.33;;;25.60;99.90;;;;;;5058473;28;20447;-79
2022/08/31 12:10:31;;;;;;;6.20;3.37;;;25.70;99.90;;;;;;5058809;28;20523;-80
2022/08/31 12:13:35;;;;;;;5.00;2.93;;;25.80;99.90;;;;;;5074398;28;20573;-81
2022/08/31 12:16:21;;;;;;;7.60;3.10;;;25.60;99.90;;;;;;5137270;22;20489;-80
2022/08/31 12:25:15;;;;;;;4.20;3.00;;;26.00;99.90;;;;;;5119683;28;20534;-77
2022/08/31 12:27:52;;;;;;;6.93;2.73;;;25.90;99.90;;;;;;5121265;28;20863;-80
2022/08/31 12:30:22;;;;;;;11.20;4.00;;;25.70;99.90;;;;;;5120568;28;20505;-82
2022/08/31 12:32:58;;;;;;;6.43;2.80;;;25.70;99.90;;;;;;5104078;28;20477;-78
2022/08/31 12:35:27;;;;;;;5.73;2.40;;;26.50;99.90;;;;;;5099936;28;20458;-79
2022/08/31 12:37:59;;;;;;;7.00;2.60;;;27.10;99.90;;;;;;5098048;28;20453;-77
2022/08/31 12:40:30;;;;;;;4.90;2.57;;;27.60;99.90;;;;;;5100391;28;20945;-81
2022/08/31 12:43:02;;;;;;;5.03;2.40;;;28.10;99.90;;;;;;5115677;28;20461;-80
2022/08/31 12:46:04;;;;;;;7.80;2.97;;;28.10;99.90;;;;;;5120764;28;20508;-80
2022/08/31 12:49:04;;;;;;;4.67;2.40;;;28.40;99.90;;;;;;5121173;28;20523;-81
2022/08/31 12:51:40;;;;;;;4.37;2.20;;;28.10;99.90;;;;;;5062347;28;20450;-81
2022/08/31 12:54:31;;;;;;;2.70;1.80;;;27.60;99.90;;;;;;5096674;28;20528;-80
2022/08/31 12:57:08;;;;;;;4.60;2.33;;;27.10;99.90;;;;;;5048037;28;21045;-80
2022/08/31 12:59:43;;;;;;;5.07;3.10;;;26.80;99.90;;;;;;5096370;28;20468;-79
2022/08/31 13:02:11;;;;;;;4.13;2.80;;;27.50;99.90;;;;;;5105558;28;20441;-80
2022/08/31 13:04:42;;;;;;;8.10;2.70;;;28.10;99.90;;;;;;5117843;28;20480;-81
2022/08/31 13:07:14;;;;;;;4.83;2.47;;;28.60;99.90;;;;;;5120492;28;20457;-81
2022/08/31 13:09:41;;;;;;;4.50;2.37;;;29.00;99.90;;;;;;5128720;28;20433;-82
2022/08/31 13:12:09;;;;;;;3.80;2.33;;;29.30;99.90;;;;;;5132976;28;20445;-79
2022/08/31 13:14:41;;;;;;;2.80;1.90;;;29.70;99.90;;;;;;5113473;28;20465;-81
2022/08/31 13:17:13;;;;;;;4.43;2.37;;;30.20;99.90;;;;;;5115570;28;20458;-81
2022/08/31 13:19:48;;;;;;;3.70;2.40;;;30.30;99.90;;;;;;5115725;28;20432;-82
2022/08/31 13:22:23;;;;;;;4.90;2.17;;;30.50;99.90;;;;;;5124645;28;20464;-81
2022/08/31 13:24:49;;;;;;;3.47;2.30;;;30.50;99.90;;;;;;5123071;28;20523;-79